createdAt,value
2022-12-23T00:01:22.607Z,3.53
2022-12-23T00:03:49.056Z,3.60
2022-12-23T00:06:17.415Z,3.45
2022-12-23T00:08:44.411Z,3.78
2022-12-23T00:11:14.200Z,3.28
2022-12-23T00:13:59.230Z,3.40
2022-12-23T00:16:25.950Z,3.22
2022-12-23T00:18:54.256Z,3.75
2022-12-23T00:21:21.915Z,3.20
2022-12-23T00:23:50.309Z,3.70
2022-12-23T00:26:25.068Z,3.42
2022-12-23T00:28:52.147Z,3.30
2022-12-23T00:31:19.337Z,3.47
2022-12-23T00:33:49.537Z,3.60
2022-12-23T00:36:21.893Z,3.35
2022-12-23T00:39:07.499Z,3.40
2022-12-23T00:44:19.423Z,3.65
2022-12-23T00:46:45.928Z,2.75
2022-12-23T00:49:36.462Z,3.10
2022-12-23T00:52:04.176Z,3.85
2022-12-23T00:54:31.904Z,2.88
2022-12-23T00:56:59.011Z,2.90
2022-12-23T00:59:25.422Z,2.95
2022-12-23T01:02:10.243Z,2.90
2022-12-23T01:04:55.665Z,3.25
2022-12-23T01:07:23.275Z,2.50
2022-12-23T01:09:49.834Z,3.50
2022-12-23T01:12:16.254Z,2.67
2022-12-23T01:14:42.704Z,2.63
2022-12-23T01:17:09.454Z,2.92
2022-12-23T01:19:36.455Z,2.70
2022-12-23T01:22:03.101Z,2.72
2022-12-23T01:24:31.141Z,2.70
2022-12-23T01:26:58.068Z,2.63
2022-12-23T01:29:25.057Z,2.75
2022-12-23T01:31:51.628Z,3.70
2022-12-23T01:34:18.184Z,2.90
2022-12-23T01:36:44.636Z,2.58
2022-12-23T01:39:11.028Z,2.42
2022-12-23T01:41:55.924Z,3.03
2022-12-23T01:44:50.192Z,2.95
2022-12-23T01:47:26.664Z,3.05
2022-12-23T01:50:02.928Z,3.00
2022-12-23T01:52:30.523Z,3.70
2022-12-23T01:54:57.527Z,3.28
2022-12-23T01:57:24.648Z,3.15
2022-12-23T02:00:09.683Z,3.65
2022-12-23T02:02:57.294Z,4.00
2022-12-23T02:05:24.222Z,3.70
2022-12-23T02:08:10.876Z,4.50
2022-12-23T02:10:55.873Z,3.53
2022-12-23T02:13:34.720Z,3.67
2022-12-23T02:16:16.791Z,4.25
2022-12-23T02:18:49.166Z,3.47
2022-12-23T02:21:28.135Z,4.07
2022-12-23T02:24:03.802Z,4.63
2022-12-23T02:26:51.401Z,4.15
2022-12-23T02:29:23.506Z,4.68
2022-12-23T02:31:52.892Z,4.75
2022-12-23T02:34:21.229Z,4.80
2022-12-23T02:37:26.548Z,4.65
2022-12-23T02:40:07.779Z,4.30
2022-12-23T02:43:02.072Z,4.75
2022-12-23T02:45:52.832Z,4.38
2022-12-23T02:48:46.654Z,4.18
2022-12-23T02:51:14.963Z,4.25
2022-12-23T02:53:49.093Z,4.82
2022-12-23T02:56:19.422Z,4.90
2022-12-23T02:59:12.642Z,5.07
2022-12-23T03:01:40.011Z,4.95
2022-12-23T03:04:06.850Z,4.97
2022-12-23T03:06:38.577Z,5.15
2022-12-23T03:09:05.430Z,5.40
2022-12-23T03:12:02.967Z,5.50
2022-12-23T03:14:59.717Z,6.97
2022-12-23T03:17:50.075Z,5.57
2022-12-23T03:20:44.253Z,5.72
2022-12-23T03:23:28.486Z,6.30
2022-12-23T03:26:03.612Z,6.32
2022-12-23T03:31:11.679Z,5.72
2022-12-23T03:33:43.354Z,5.90
2022-12-23T03:36:18.731Z,6.55
2022-12-23T03:38:45.884Z,6.43
2022-12-23T03:41:20.953Z,7.45
2022-12-23T03:46:34.903Z,6.50
2022-12-23T03:49:06.566Z,7.55
2022-12-23T03:51:39.567Z,7.10
2022-12-23T03:54:15.085Z,6.75
2022-12-23T03:56:45.611Z,7.20
2022-12-23T03:59:18.243Z,6.75
2022-12-23T04:02:06.022Z,6.72
2022-12-23T04:04:57.669Z,6.85
2022-12-23T04:07:30.858Z,7.40
2022-12-23T04:09:58.175Z,7.45
2022-12-23T04:12:26.975Z,6.90
2022-12-23T04:14:53.637Z,7.78
2022-12-23T04:17:20.427Z,7.82
2022-12-23T04:19:47.370Z,6.80
2022-12-23T04:22:15.629Z,8.50
2022-12-23T04:24:42.525Z,7.72
2022-12-23T04:27:12.248Z,7.22
2022-12-23T04:29:38.682Z,6.97
2022-12-23T04:32:05.678Z,6.90
2022-12-23T04:34:32.073Z,7.18
2022-12-23T04:36:58.529Z,7.43
2022-12-23T04:39:24.860Z,7.05
2022-12-23T04:41:51.351Z,7.63
2022-12-23T04:44:17.783Z,7.28
2022-12-23T04:46:45.360Z,6.20
2022-12-23T04:49:11.822Z,6.75
2022-12-23T04:51:38.158Z,6.63
2022-12-23T04:54:04.683Z,6.32
2022-12-23T04:56:31.100Z,6.20
2022-12-23T04:58:57.558Z,5.72
2022-12-23T05:01:23.974Z,6.03
2022-12-23T05:03:50.383Z,6.68
2022-12-23T05:06:16.774Z,5.88
2022-12-23T05:08:43.162Z,5.50
2022-12-23T05:11:09.567Z,5.97
2022-12-23T05:13:35.975Z,4.85
2022-12-23T05:16:02.539Z,4.68
2022-12-23T05:18:28.921Z,4.82
2022-12-23T05:20:55.378Z,4.57
2022-12-23T05:23:21.800Z,6.05
2022-12-23T05:25:53.318Z,4.18
2022-12-23T05:28:21.337Z,4.57
2022-12-23T05:30:48.167Z,5.10
2022-12-23T05:33:14.935Z,4.30
2022-12-23T05:35:41.647Z,4.28
2022-12-23T05:38:08.044Z,4.53
2022-12-23T05:40:34.495Z,4.00
2022-12-23T05:43:01.036Z,4.32
2022-12-23T05:45:27.523Z,4.40
2022-12-23T05:47:53.939Z,4.28
2022-12-23T05:50:20.291Z,4.20
2022-12-23T05:52:46.681Z,3.70
2022-12-23T05:55:13.010Z,3.92
2022-12-23T05:57:39.462Z,4.63
2022-12-23T06:00:06.550Z,4.43
2022-12-23T06:02:33.185Z,3.88
2022-12-23T06:04:59.787Z,4.40
2022-12-23T06:07:26.180Z,4.78
2022-12-23T06:09:52.625Z,5.25
2022-12-23T06:12:19.005Z,4.05
2022-12-23T06:14:45.386Z,4.65
2022-12-23T06:17:11.844Z,4.45
2022-12-23T06:19:38.243Z,5.35
2022-12-23T06:22:04.644Z,4.53
2022-12-23T06:24:31.062Z,5.32
2022-12-23T06:26:57.774Z,5.07
2022-12-23T06:29:24.914Z,5.32
2022-12-23T06:31:51.423Z,5.30
2022-12-23T06:34:18.044Z,6.00
2022-12-23T06:36:44.590Z,5.90
2022-12-23T06:39:11.690Z,5.38
2022-12-23T06:41:38.101Z,6.57
2022-12-23T06:44:04.749Z,6.68
2022-12-23T06:46:31.513Z,5.85
2022-12-23T06:48:58.119Z,5.88
2022-12-23T06:51:24.612Z,6.25
2022-12-23T06:53:50.937Z,5.20
2022-12-23T06:56:18.596Z,7.18
2022-12-23T06:58:44.995Z,6.40
2022-12-23T07:01:11.530Z,6.68
2022-12-23T07:03:38.058Z,7.43
2022-12-23T07:06:04.685Z,6.80
2022-12-23T07:08:31.103Z,6.45
2022-12-23T07:10:59.557Z,7.32
2022-12-23T07:13:26.803Z,7.20
2022-12-23T07:15:53.339Z,6.38
2022-12-23T07:18:21.978Z,7.57
2022-12-23T07:20:48.628Z,7.28
2022-12-23T07:23:15.248Z,6.85
2022-12-23T07:25:41.624Z,7.00
2022-12-23T07:28:08.108Z,7.85
2022-12-23T07:30:35.106Z,6.25
2022-12-23T07:33:01.630Z,6.63
2022-12-23T07:35:28.146Z,6.55
2022-12-23T07:37:56.087Z,6.90
2022-12-23T07:40:23.389Z,6.35
2022-12-23T07:42:50.433Z,7.07
2022-12-23T07:45:16.908Z,6.65
2022-12-23T07:47:43.592Z,6.35
2022-12-23T07:50:10.256Z,6.60
2022-12-23T07:52:36.834Z,6.20
2022-12-23T07:55:04.060Z,6.57
2022-12-23T07:57:30.434Z,6.57
2022-12-23T07:59:56.838Z,7.72
2022-12-23T08:02:25.167Z,7.95
2022-12-23T08:04:52.023Z,7.78
2022-12-23T08:07:18.490Z,7.88
2022-12-23T08:09:44.889Z,8.27
2022-12-23T08:12:11.325Z,7.88
2022-12-23T08:14:37.659Z,7.45
2022-12-23T08:17:04.092Z,8.52
2022-12-23T08:19:30.501Z,8.20
2022-12-23T08:21:56.849Z,9.02
2022-12-23T08:24:23.259Z,7.80
2022-12-23T08:26:49.632Z,7.80
2022-12-23T08:29:16.041Z,7.88
2022-12-23T08:31:42.647Z,7.38
2022-12-23T08:34:09.203Z,6.88
2022-12-23T08:36:36.568Z,6.90
2022-12-23T08:39:06.375Z,8.68
2022-12-23T08:41:37.193Z,7.45
2022-12-23T08:44:03.708Z,7.32
2022-12-23T08:46:30.213Z,8.05
2022-12-23T08:48:56.979Z,8.02
2022-12-23T08:51:25.226Z,7.90
2022-12-23T08:53:59.782Z,8.73
2022-12-23T08:56:31.483Z,7.43
2022-12-23T08:58:57.963Z,7.45
2022-12-23T09:01:27.206Z,7.43
2022-12-23T09:03:54.033Z,7.07
2022-12-23T09:06:34.786Z,7.05
2022-12-23T09:09:01.221Z,6.50
2022-12-23T09:11:29.783Z,8.15
2022-12-23T09:13:58.495Z,7.28
2022-12-23T09:16:25.544Z,7.07
2022-12-23T09:18:51.925Z,7.82
2022-12-23T09:21:20.460Z,7.55
2022-12-23T09:23:47.473Z,6.65
2022-12-23T09:26:19.332Z,7.28
2022-12-23T09:28:45.765Z,6.93
2022-12-23T09:31:13.257Z,7.20
2022-12-23T09:33:40.314Z,7.43
2022-12-23T09:36:07.160Z,7.55
2022-12-23T09:38:34.369Z,7.50
2022-12-23T09:41:14.898Z,7.38
2022-12-23T09:43:57.204Z,8.05
2022-12-23T09:46:27.267Z,8.85
2022-12-23T09:49:11.100Z,7.65
2022-12-23T09:51:38.376Z,8.43
2022-12-23T09:54:24.277Z,7.85
2022-12-23T09:56:58.308Z,7.15
2022-12-23T09:59:49.511Z,7.32
2022-12-23T10:02:39.863Z,7.05
2022-12-23T10:05:25.395Z,7.05
2022-12-23T10:08:12.520Z,7.28
2022-12-23T10:10:56.655Z,6.50
2022-12-23T10:13:32.090Z,6.55
2022-12-23T10:16:03.352Z,6.25
2022-12-23T10:18:32.593Z,6.30
2022-12-23T10:21:04.910Z,6.45
2022-12-23T10:23:36.704Z,6.28
2022-12-23T10:26:15.525Z,7.13
2022-12-23T10:28:41.906Z,6.30
2022-12-23T10:31:39.360Z,6.53
2022-12-23T10:34:20.996Z,6.22
2022-12-23T10:37:03.753Z,6.78
2022-12-23T10:39:48.546Z,7.80
2022-12-23T10:43:10.542Z,6.20
2022-12-23T10:45:51.593Z,6.28
2022-12-23T10:48:43.563Z,6.43
2022-12-23T10:51:17.740Z,7.07
2022-12-23T10:53:52.977Z,7.03
2022-12-23T10:56:20.459Z,6.97
2022-12-23T10:58:51.734Z,6.97
2022-12-23T11:01:26.573Z,5.60
2022-12-23T11:04:13.356Z,6.32
2022-12-23T11:06:44.407Z,6.03
2022-12-23T11:09:21.783Z,5.15
2022-12-23T11:12:00.373Z,5.32
2022-12-23T11:14:37.831Z,5.10
2022-12-23T11:17:06.216Z,5.60
2022-12-23T11:19:32.724Z,5.03
2022-12-23T11:22:00.723Z,5.03
2022-12-23T11:24:35.350Z,4.88
2022-12-23T11:27:11.452Z,4.90
2022-12-23T11:29:45.573Z,4.80
2022-12-23T11:32:18.410Z,5.20
2022-12-23T11:34:47.599Z,5.10
2022-12-23T11:37:36.680Z,4.78
2022-12-23T11:40:23.141Z,4.90
2022-12-23T11:43:02.125Z,5.07
2022-12-23T11:45:32.891Z,3.50
2022-12-23T11:47:59.796Z,3.45
2022-12-23T11:50:38.383Z,3.35
2022-12-23T11:53:23.173Z,2.55
2022-12-23T11:55:59.192Z,2.63
2022-12-23T11:58:27.839Z,2.63
2022-12-23T12:00:59.709Z,2.50
2022-12-23T12:03:32.136Z,2.58
2022-12-23T12:06:02.408Z,2.78
2022-12-23T12:08:33.216Z,2.65
2022-12-23T12:11:07.774Z,3.08
2022-12-23T12:13:42.801Z,3.20
2022-12-23T12:18:41.907Z,3.83
2022-12-23T12:21:16.423Z,3.97
2022-12-23T12:23:45.983Z,4.70
2022-12-23T12:26:24.688Z,4.78
2022-12-23T12:28:59.154Z,5.45
2022-12-23T12:31:40.952Z,4.90
2022-12-23T12:34:34.925Z,5.22
2022-12-23T12:37:19.788Z,4.85
2022-12-23T12:39:54.109Z,5.07
2022-12-23T12:42:27.846Z,4.25
2022-12-23T12:45:27.171Z,4.57
2022-12-23T12:48:18.150Z,5.40
2022-12-23T12:50:56.950Z,5.05
2022-12-23T12:53:23.915Z,4.07
2022-12-23T12:55:59.998Z,4.30
2022-12-23T12:58:26.664Z,4.07
2022-12-23T13:01:24.555Z,3.78
2022-12-23T13:04:23.730Z,3.60
2022-12-23T13:07:18.380Z,3.00
2022-12-23T13:10:06.729Z,3.35
2022-12-23T13:12:53.791Z,2.72
2022-12-23T13:15:20.094Z,2.58
2022-12-23T13:17:46.471Z,2.40
2022-12-23T13:20:34.667Z,2.20
2022-12-23T13:23:41.625Z,2.30
2022-12-23T13:26:09.704Z,2.42
2022-12-23T13:29:25.409Z,2.00
2022-12-23T13:32:02.313Z,2.40
2022-12-23T13:34:48.171Z,2.00
2022-12-23T13:37:32.743Z,2.10
2022-12-23T13:40:27.615Z,2.07
2022-12-23T13:42:59.728Z,2.23
2022-12-23T13:45:34.514Z,3.45
2022-12-23T13:48:33.244Z,2.22
2022-12-23T13:51:15.124Z,2.05
2022-12-23T13:54:14.611Z,1.83
2022-12-23T13:56:52.709Z,2.38
2022-12-23T13:59:19.140Z,1.80
2022-12-23T14:01:52.349Z,1.95
2022-12-23T14:04:35.844Z,1.48
2022-12-23T14:07:21.892Z,2.33
2022-12-23T14:09:56.023Z,1.60
2022-12-23T14:12:28.574Z,1.53
2022-12-23T14:15:04.405Z,1.30
2022-12-23T14:17:45.203Z,1.55
2022-12-23T14:20:34.292Z,1.60
2022-12-23T14:23:16.847Z,1.60
2022-12-23T14:26:11.323Z,1.50
2022-12-23T14:29:10.210Z,1.45
2022-12-23T14:31:45.901Z,1.40
2022-12-23T14:34:18.044Z,1.40
2022-12-23T14:37:23.025Z,1.60
2022-12-23T14:39:50.594Z,1.50
2022-12-23T14:42:35.108Z,1.90
2022-12-23T14:45:35.485Z,1.90
2022-12-23T14:48:33.514Z,1.65
2022-12-23T14:51:21.053Z,1.70
2022-12-23T14:54:03.058Z,1.98
2022-12-23T14:56:47.621Z,2.30
2022-12-23T14:59:40.408Z,2.08
2022-12-23T15:02:12.564Z,2.35
2022-12-23T15:04:53.239Z,2.53
2022-12-23T15:07:29.164Z,3.40
2022-12-23T15:10:01.128Z,3.30
2022-12-23T15:12:40.274Z,3.40
2022-12-23T15:15:18.745Z,3.38
2022-12-23T15:17:45.955Z,3.78
2022-12-23T15:20:22.489Z,3.67
2022-12-23T15:22:49.922Z,4.28
2022-12-23T15:25:24.280Z,3.88
2022-12-23T15:27:59.078Z,4.10
2022-12-23T15:30:31.479Z,4.22
2022-12-23T15:33:06.436Z,4.50
2022-12-23T15:35:42.900Z,4.15
2022-12-23T15:38:14.526Z,3.95
2022-12-23T15:40:41.088Z,3.97
2022-12-23T15:43:20.356Z,3.90
2022-12-23T15:45:46.744Z,3.88
2022-12-23T15:48:28.377Z,3.90
2022-12-23T15:51:49.701Z,3.72
2022-12-23T15:54:09.080Z,4.25
2022-12-23T15:56:38.705Z,4.40
2022-12-23T15:59:05.768Z,4.15
2022-12-23T16:01:40.953Z,4.40
2022-12-23T16:04:08.875Z,4.40
2022-12-23T16:06:36.498Z,4.72
2022-12-23T16:09:05.202Z,4.47
2022-12-23T16:11:49.728Z,4.15
2022-12-23T16:14:31.490Z,4.20
2022-12-23T16:16:59.740Z,4.03
2022-12-23T16:19:52.191Z,3.88
2022-12-23T16:22:27.092Z,4.10
2022-12-23T16:25:09.688Z,4.60
2022-12-23T16:27:39.590Z,4.05
2022-12-23T16:30:30.605Z,3.90
2022-12-23T16:33:00.195Z,2.53
2022-12-23T16:35:39.858Z,2.25
2022-12-23T16:38:12.334Z,1.70
2022-12-23T16:40:39.837Z,1.80
2022-12-23T16:43:06.622Z,2.00
2022-12-23T16:45:34.444Z,2.15
2022-12-23T16:48:02.594Z,1.80
2022-12-23T16:50:29.432Z,1.83
2022-12-23T16:52:56.349Z,1.65
2022-12-23T16:55:22.983Z,1.70
2022-12-23T16:57:50.558Z,1.45
2022-12-23T17:00:19.605Z,1.35
2022-12-23T17:02:48.098Z,1.30
2022-12-23T17:05:19.801Z,1.27
2022-12-23T17:07:46.781Z,1.63
2022-12-23T17:10:16.110Z,1.42
2022-12-23T17:12:44.354Z,1.48
2022-12-23T17:15:19.668Z,1.50
2022-12-23T17:17:47.242Z,2.00
2022-12-23T17:20:13.743Z,2.13
2022-12-23T17:22:42.994Z,1.88
2022-12-23T17:25:12.842Z,1.70
2022-12-23T17:27:39.760Z,1.73
2022-12-23T17:30:10.612Z,1.67
2022-12-23T17:32:37.087Z,1.90
2022-12-23T17:35:03.603Z,1.98
2022-12-23T17:37:31.377Z,1.50
2022-12-23T17:39:57.909Z,2.97
2022-12-23T17:42:26.093Z,1.63
2022-12-23T17:44:52.729Z,2.63
2022-12-23T17:47:21.435Z,2.00
2022-12-23T17:49:48.988Z,2.10
2022-12-23T17:52:24.580Z,1.98
2022-12-23T17:54:51.539Z,2.40
2022-12-23T17:57:26.243Z,1.70
2022-12-23T17:59:54.193Z,1.77
2022-12-23T18:02:23.038Z,1.90
2022-12-23T18:04:50.548Z,1.63
2022-12-23T18:07:17.281Z,2.00
2022-12-23T18:09:43.808Z,2.10
2022-12-23T18:12:32.472Z,2.60
2022-12-23T18:14:58.924Z,2.35
2022-12-23T18:17:25.331Z,2.50
2022-12-23T18:19:51.812Z,2.55
2022-12-23T18:22:20.720Z,2.22
2022-12-23T18:24:52.304Z,2.75
2022-12-23T18:27:23.036Z,2.20
2022-12-23T18:29:50.504Z,2.67
2022-12-23T18:32:28.061Z,2.67
2022-12-23T18:34:55.799Z,2.75
2022-12-23T18:37:23.511Z,2.58
2022-12-23T18:39:50.160Z,2.50
2022-12-23T18:42:18.742Z,2.60
2022-12-23T18:44:46.537Z,3.05
2022-12-23T18:47:12.967Z,3.03
2022-12-23T18:49:39.616Z,3.25
2022-12-23T18:52:12.505Z,3.67
2022-12-23T18:54:39.709Z,3.15
2022-12-23T18:57:06.261Z,3.03
2022-12-23T18:59:34.124Z,4.80
2022-12-23T19:02:00.748Z,3.00
2022-12-23T19:04:27.673Z,3.45
2022-12-23T19:06:55.783Z,4.15
2022-12-23T19:09:26.034Z,4.55
2022-12-23T19:11:54.148Z,3.63
2022-12-23T19:14:20.944Z,4.13
2022-12-23T19:16:51.563Z,3.75
2022-12-23T19:19:19.033Z,4.82
2022-12-23T19:21:45.470Z,3.50
2022-12-23T19:24:11.897Z,3.95
2022-12-23T19:26:38.239Z,4.40
2022-12-23T19:29:04.644Z,3.80
2022-12-23T19:31:33.725Z,4.25
2022-12-23T19:34:00.551Z,4.60
2022-12-23T19:36:27.065Z,4.07
2022-12-23T19:38:53.493Z,4.38
2022-12-23T19:41:19.935Z,4.45
2022-12-23T19:43:47.122Z,4.07
2022-12-23T19:46:15.500Z,4.75
2022-12-23T19:48:42.624Z,5.75
2022-12-23T19:51:12.155Z,4.88
2022-12-23T19:53:40.974Z,3.85
2022-12-23T19:56:16.678Z,4.43
2022-12-23T19:58:44.149Z,4.10
2022-12-23T20:01:16.208Z,3.53
2022-12-23T20:03:44.220Z,5.32
2022-12-23T20:06:16.456Z,4.05
2022-12-23T20:08:43.756Z,4.13
2022-12-23T20:11:13.736Z,3.90
2022-12-23T20:13:40.624Z,3.88
2022-12-23T20:16:07.512Z,3.78
2022-12-23T20:18:34.223Z,3.85
2022-12-23T20:21:01.097Z,3.95
2022-12-23T20:23:29.187Z,5.00
2022-12-23T20:25:55.700Z,2.95
2022-12-23T20:28:22.537Z,3.50
2022-12-23T20:30:49.080Z,3.70
2022-12-23T20:33:16.181Z,4.15
2022-12-23T20:35:42.990Z,4.22
2022-12-23T20:38:09.561Z,3.80
2022-12-23T20:40:36.079Z,4.78
2022-12-23T20:43:03.370Z,3.58
2022-12-23T20:45:29.788Z,4.45
2022-12-23T20:47:56.168Z,4.45
2022-12-23T20:50:22.586Z,3.85
2022-12-23T20:52:51.189Z,3.75
2022-12-23T20:55:17.561Z,5.70
2022-12-23T20:57:45.434Z,3.78
2022-12-23T21:00:13.186Z,5.55
2022-12-23T21:02:44.000Z,5.15
2022-12-23T21:05:10.515Z,4.97
2022-12-23T21:07:36.893Z,4.38
2022-12-23T21:10:03.881Z,4.00
2022-12-23T21:12:30.412Z,4.03
2022-12-23T21:14:56.935Z,4.90
2022-12-23T21:17:23.775Z,3.80
2022-12-23T21:19:50.210Z,4.78
2022-12-23T21:22:16.572Z,3.88
2022-12-23T21:24:42.902Z,4.90
2022-12-23T21:27:09.337Z,5.00
2022-12-23T21:29:35.717Z,4.35
2022-12-23T21:32:02.900Z,4.60
2022-12-23T21:34:29.430Z,4.40
2022-12-23T21:36:55.983Z,3.08
2022-12-23T21:39:22.512Z,4.65
2022-12-23T21:41:51.303Z,3.60
2022-12-23T21:44:17.927Z,3.90
2022-12-23T21:46:44.457Z,4.82
2022-12-23T21:49:11.538Z,4.10
2022-12-23T21:51:40.621Z,4.28
2022-12-23T21:54:08.635Z,3.80
2022-12-23T21:56:35.561Z,4.50
2022-12-23T21:59:05.906Z,3.63
2022-12-23T22:01:35.042Z,4.53
2022-12-23T22:04:01.984Z,4.13
2022-12-23T22:06:31.949Z,4.53
2022-12-23T22:08:58.963Z,3.30
2022-12-23T22:11:27.948Z,4.03
2022-12-23T22:13:56.477Z,3.72
2022-12-23T22:16:25.096Z,3.65
2022-12-23T22:18:53.033Z,3.60
2022-12-23T22:21:23.239Z,4.28
2022-12-23T22:23:51.231Z,3.47
2022-12-23T22:26:24.758Z,3.20
2022-12-23T22:28:56.236Z,4.20
2022-12-23T22:31:27.216Z,4.85
2022-12-23T22:33:53.827Z,4.18
2022-12-23T22:36:20.311Z,3.58
2022-12-23T22:38:54.760Z,4.03
2022-12-23T22:41:21.754Z,3.55
2022-12-23T22:43:48.996Z,3.03
2022-12-23T22:46:16.155Z,3.90
2022-12-23T22:48:42.750Z,4.00
2022-12-23T22:51:14.849Z,3.47
2022-12-23T22:53:41.368Z,3.72
2022-12-23T22:56:08.579Z,3.63
2022-12-23T22:58:35.004Z,4.13
2022-12-23T23:01:01.427Z,3.45
2022-12-23T23:03:28.325Z,3.72
2022-12-23T23:06:09.365Z,3.85
2022-12-23T23:08:35.838Z,4.00
2022-12-23T23:11:04.478Z,4.00
2022-12-23T23:13:33.826Z,3.80
2022-12-23T23:16:01.508Z,4.75
2022-12-23T23:18:29.174Z,3.45
2022-12-23T23:20:55.712Z,4.03
2022-12-23T23:23:22.156Z,3.53
2022-12-23T23:25:48.637Z,4.38
2022-12-23T23:28:15.390Z,3.40
2022-12-23T23:30:41.911Z,4.43
2022-12-23T23:33:09.801Z,3.95
2022-12-23T23:35:36.292Z,3.83
2022-12-23T23:38:02.860Z,3.97
2022-12-23T23:40:29.394Z,3.95
2022-12-23T23:42:55.795Z,3.72
2022-12-23T23:45:22.148Z,3.70
2022-12-23T23:47:48.614Z,4.55
2022-12-23T23:50:15.470Z,3.83
2022-12-23T23:52:41.964Z,3.70
2022-12-23T23:55:08.898Z,3.50
2022-12-23T23:57:35.469Z,3.88
